createdAt,value
2019-02-21T00:00:04.289Z,14.45
2019-02-21T00:02:32.870Z,15.23
2019-02-21T00:05:01.434Z,15.40
2019-02-21T00:07:30.023Z,16.45
2019-02-21T00:09:58.587Z,15.05
2019-02-21T00:12:27.170Z,15.55
2019-02-21T00:14:55.744Z,16.50
2019-02-21T00:17:24.307Z,15.55
2019-02-21T00:19:52.983Z,15.32
2019-02-21T00:22:21.562Z,15.60
2019-02-21T00:24:50.148Z,15.78
2019-02-21T00:27:18.990Z,16.10
2019-02-21T00:29:47.747Z,14.63
2019-02-21T00:32:16.306Z,15.00
2019-02-21T00:34:44.895Z,15.23
2019-02-21T00:37:13.459Z,16.00
2019-02-21T00:39:42.046Z,18.27
2019-02-21T00:42:10.618Z,14.50
2019-02-21T00:44:39.207Z,16.00
2019-02-21T00:47:07.777Z,15.43
2019-02-21T00:49:36.360Z,13.58
2019-02-21T00:52:04.925Z,14.73
2019-02-21T00:54:33.508Z,14.28
2019-02-21T00:57:02.070Z,16.23
2019-02-21T00:59:30.665Z,16.05
2019-02-21T01:01:59.227Z,16.00
2019-02-21T01:04:27.810Z,14.58
2019-02-21T01:06:56.383Z,16.37
2019-02-21T01:09:25.043Z,15.10
2019-02-21T01:11:53.779Z,14.85
2019-02-21T01:14:22.364Z,16.30
2019-02-21T01:16:50.930Z,16.30
2019-02-21T01:19:19.531Z,15.80
2019-02-21T01:21:48.155Z,15.15
2019-02-21T01:24:17.019Z,15.35
2019-02-21T01:26:45.578Z,14.95
2019-02-21T01:29:14.235Z,15.70
2019-02-21T01:31:42.807Z,15.48
2019-02-21T01:34:11.391Z,15.20
2019-02-21T01:36:39.959Z,16.23
2019-02-21T01:39:08.610Z,15.43
2019-02-21T01:41:37.174Z,14.65
2019-02-21T01:44:05.762Z,15.30
2019-02-21T01:46:34.335Z,15.20
2019-02-21T01:49:02.920Z,15.28
2019-02-21T01:51:31.496Z,15.13
2019-02-21T01:54:00.082Z,14.98
2019-02-21T01:56:28.667Z,16.00
2019-02-21T01:58:57.248Z,16.12
2019-02-21T02:01:25.831Z,14.40
2019-02-21T02:03:54.423Z,16.17
2019-02-21T02:06:22.997Z,15.70
2019-02-21T02:08:51.655Z,16.20
2019-02-21T02:11:20.228Z,16.32
2019-02-21T02:13:48.827Z,16.60
2019-02-21T02:16:17.399Z,16.20
2019-02-21T02:18:45.999Z,15.78
2019-02-21T02:21:14.574Z,16.15
2019-02-21T02:23:43.163Z,16.65
2019-02-21T02:26:11.739Z,16.95
2019-02-21T02:28:40.327Z,18.27
2019-02-21T02:31:21.495Z,17.10
2019-02-21T02:33:39.144Z,17.30
2019-02-21T02:36:07.711Z,15.95
2019-02-21T02:38:36.386Z,15.63
2019-02-21T02:41:04.888Z,17.12
2019-02-21T02:43:33.456Z,16.40
2019-02-21T02:46:02.041Z,17.52
2019-02-21T02:48:30.604Z,16.52
2019-02-21T02:50:59.186Z,17.42
2019-02-21T02:53:27.758Z,16.67
2019-02-21T02:55:56.355Z,16.45
2019-02-21T02:58:24.920Z,15.20
2019-02-21T03:00:53.505Z,16.85
2019-02-21T03:03:22.212Z,16.90
2019-02-21T03:05:50.794Z,15.80
2019-02-21T03:08:19.367Z,16.80
2019-02-21T03:10:47.948Z,16.57
2019-02-21T03:13:16.519Z,17.12
2019-02-21T03:15:45.118Z,18.20
2019-02-21T03:18:13.679Z,16.75
2019-02-21T03:20:42.264Z,18.20
2019-02-21T03:23:10.831Z,21.70
2019-02-21T03:25:39.418Z,21.70
2019-02-21T03:28:07.993Z,23.25
2019-02-21T03:30:36.605Z,22.07
2019-02-21T03:33:05.157Z,21.23
2019-02-21T03:35:33.743Z,20.23
2019-02-21T03:38:02.311Z,20.48
2019-02-21T03:40:30.973Z,19.80
2019-02-21T03:42:59.542Z,19.85
2019-02-21T03:45:28.140Z,18.73
2019-02-21T03:47:56.719Z,20.82
2019-02-21T03:50:25.316Z,17.90
2019-02-21T03:52:53.888Z,18.02
2019-02-21T03:55:22.476Z,17.92
2019-02-21T03:57:51.036Z,17.30
2019-02-21T04:00:19.631Z,17.67
2019-02-21T04:02:48.195Z,17.42
2019-02-21T04:05:16.809Z,18.23
2019-02-21T04:07:45.356Z,18.62
2019-02-21T04:10:13.938Z,20.57
2019-02-21T04:12:42.512Z,20.60
2019-02-21T04:15:12.863Z,20.23
2019-02-21T04:17:41.439Z,20.27
2019-02-21T04:20:10.568Z,18.77
2019-02-21T04:22:39.127Z,19.35
2019-02-21T04:25:07.788Z,19.70
2019-02-21T04:27:36.355Z,19.20
2019-02-21T04:30:05.801Z,19.45
2019-02-21T04:32:34.356Z,20.55
2019-02-21T04:35:02.940Z,19.80
2019-02-21T04:37:31.499Z,18.77
2019-02-21T04:40:00.318Z,18.70
2019-02-21T04:42:28.992Z,19.52
2019-02-21T04:44:57.542Z,18.23
2019-02-21T04:47:26.111Z,19.25
2019-02-21T04:49:54.703Z,18.15
2019-02-21T04:52:23.272Z,19.48
2019-02-21T04:54:51.867Z,20.15
2019-02-21T04:57:20.449Z,18.27
2019-02-21T04:59:49.111Z,19.50
2019-02-21T05:02:28.185Z,18.82
2019-02-21T05:04:47.923Z,16.55
2019-02-21T05:07:16.491Z,19.73
2019-02-21T05:09:56.998Z,20.32
2019-02-21T05:12:15.305Z,19.62
2019-02-21T05:14:43.856Z,19.23
2019-02-21T05:17:12.439Z,20.50
2019-02-21T05:19:41.004Z,19.85
2019-02-21T05:22:09.592Z,19.23
2019-02-21T05:24:38.220Z,18.25
2019-02-21T05:27:10.801Z,17.87
2019-02-21T05:29:39.376Z,19.25
2019-02-21T05:32:12.420Z,19.55
2019-02-21T05:34:42.626Z,19.65
2019-02-21T05:37:12.860Z,19.80
2019-02-21T05:39:54.961Z,20.32
2019-02-21T05:42:29.975Z,18.82
2019-02-21T05:45:15.196Z,17.25
2019-02-21T05:47:54.588Z,17.50
2019-02-21T05:50:33.644Z,20.55
2019-02-21T05:53:12.900Z,23.35
2019-02-21T05:55:57.912Z,21.97
2019-02-21T05:58:30.933Z,23.30
2019-02-21T06:01:06.859Z,21.25
2019-02-21T06:03:43.303Z,21.30
2019-02-21T06:06:17.302Z,22.82
2019-02-21T06:08:56.959Z,22.42
2019-02-21T06:11:27.182Z,21.48
2019-02-21T06:13:57.389Z,22.15
2019-02-21T06:16:32.649Z,23.10
2019-02-21T06:19:10.828Z,19.77
2019-02-21T06:22:09.693Z,20.55
2019-02-21T06:24:35.150Z,19.35
2019-02-21T06:27:14.163Z,19.48
2019-02-21T06:29:44.376Z,20.97
2019-02-21T06:32:14.452Z,23.45
2019-02-21T06:34:43.344Z,21.40
2019-02-21T06:37:12.788Z,20.30
2019-02-21T06:39:41.505Z,21.50
2019-02-21T06:42:10.091Z,22.05
2019-02-21T06:44:38.658Z,19.10
2019-02-21T06:47:07.244Z,21.25
2019-02-21T06:49:35.807Z,19.45
2019-02-21T06:52:04.391Z,20.48
2019-02-21T06:54:32.965Z,27.15
2019-02-21T06:57:01.543Z,25.95
2019-02-21T06:59:30.107Z,27.70
2019-02-21T07:01:58.699Z,28.27
2019-02-21T07:04:27.263Z,27.95
2019-02-21T07:06:56.845Z,29.35
2019-02-21T07:09:25.627Z,28.32
2019-02-21T07:11:54.202Z,26.77
2019-02-21T07:14:22.792Z,27.02
2019-02-21T07:16:51.362Z,25.85
2019-02-21T07:19:19.931Z,24.02
2019-02-21T07:21:48.522Z,21.75
2019-02-21T07:24:18.138Z,21.40
2019-02-21T07:26:46.779Z,24.45
2019-02-21T07:29:15.341Z,26.15
2019-02-21T07:31:43.934Z,25.00
2019-02-21T07:34:12.495Z,23.00
2019-02-21T07:36:41.085Z,24.65
2019-02-21T07:39:17.182Z,21.05
2019-02-21T07:41:41.690Z,22.27
2019-02-21T07:44:12.361Z,22.48
2019-02-21T07:46:40.425Z,26.17
2019-02-21T07:49:08.982Z,26.62
2019-02-21T07:51:37.568Z,29.45
2019-02-21T07:54:06.205Z,28.65
2019-02-21T07:56:41.880Z,33.80
2019-02-21T07:59:04.996Z,28.62
2019-02-21T08:01:33.579Z,29.05
2019-02-21T08:04:02.170Z,30.32
2019-02-21T08:06:30.749Z,27.62
2019-02-21T08:08:59.316Z,30.37
2019-02-21T08:11:27.907Z,28.80
2019-02-21T08:13:56.482Z,27.37
2019-02-21T08:16:25.072Z,26.50
2019-02-21T08:18:53.631Z,27.67
2019-02-21T08:21:22.215Z,27.32
2019-02-21T08:23:51.107Z,24.98
2019-02-21T08:26:20.195Z,27.20
2019-02-21T08:28:48.948Z,25.65
2019-02-21T08:31:17.518Z,24.90
2019-02-21T08:33:58.465Z,28.05
2019-02-21T08:36:20.899Z,29.42
2019-02-21T08:38:49.471Z,30.15
2019-02-21T08:41:18.051Z,28.55
2019-02-21T08:43:46.638Z,27.17
2019-02-21T08:46:18.025Z,25.52
2019-02-21T08:48:47.790Z,26.33
2019-02-21T08:51:18.176Z,25.88
2019-02-21T08:53:45.898Z,27.15
2019-02-21T08:56:14.467Z,26.65
2019-02-21T08:58:43.072Z,26.68
2019-02-21T09:01:11.890Z,26.42
2019-02-21T09:03:40.484Z,23.12
2019-02-21T09:06:09.047Z,24.00
2019-02-21T09:08:37.640Z,23.30
2019-02-21T09:11:06.276Z,22.95
2019-02-21T09:13:34.859Z,23.62
2019-02-21T09:16:03.592Z,22.35
2019-02-21T09:18:32.196Z,20.48
2019-02-21T09:21:00.760Z,21.10
2019-02-21T09:23:29.344Z,22.98
2019-02-21T09:25:57.915Z,22.52
2019-02-21T09:28:26.503Z,21.95
2019-02-21T09:30:55.067Z,25.23
2019-02-21T09:33:23.652Z,22.93
2019-02-21T09:35:52.215Z,19.85
2019-02-21T09:38:20.822Z,23.90
2019-02-21T09:40:49.388Z,23.30
2019-02-21T09:43:17.974Z,22.90
2019-02-21T09:45:46.534Z,23.07
2019-02-21T09:48:15.118Z,21.85
2019-02-21T09:50:43.693Z,22.27
2019-02-21T09:53:12.278Z,22.42
2019-02-21T09:55:40.839Z,22.27
2019-02-21T09:58:09.428Z,21.40
2019-02-21T10:00:38.005Z,22.37
2019-02-21T10:03:06.593Z,23.47
2019-02-21T10:05:35.181Z,20.92
2019-02-21T10:08:03.767Z,23.32
2019-02-21T10:10:32.334Z,22.60
2019-02-21T10:13:00.920Z,23.65
2019-02-21T10:15:31.426Z,23.32
2019-02-21T10:17:59.734Z,23.70
2019-02-21T10:20:28.300Z,23.95
2019-02-21T10:22:56.887Z,22.70
2019-02-21T10:25:30.931Z,21.07
2019-02-21T10:27:59.523Z,22.30
2019-02-21T10:30:28.226Z,21.35
2019-02-21T10:32:56.814Z,21.75
2019-02-21T10:35:25.455Z,22.32
2019-02-21T10:37:54.048Z,19.90
2019-02-21T10:40:22.681Z,18.10
2019-02-21T10:42:51.304Z,20.60
2019-02-21T10:45:21.510Z,21.02
2019-02-21T10:47:50.167Z,20.92
2019-02-21T10:50:19.883Z,21.00
2019-02-21T10:52:48.843Z,23.02
2019-02-21T10:55:18.435Z,20.68
2019-02-21T10:57:47.159Z,21.65
2019-02-21T11:00:25.014Z,20.95
2019-02-21T11:02:53.671Z,23.10
2019-02-21T11:05:22.239Z,19.73
2019-02-21T11:07:50.822Z,21.48
2019-02-21T11:10:22.463Z,20.55
2019-02-21T11:12:51.057Z,18.67
2019-02-21T11:15:21.877Z,19.77
2019-02-21T11:17:50.456Z,20.08
2019-02-21T11:20:19.874Z,20.75
2019-02-21T11:22:48.442Z,18.80
2019-02-21T11:25:17.085Z,19.10
2019-02-21T11:27:45.676Z,20.05
2019-02-21T11:30:16.744Z,19.73
2019-02-21T11:32:45.324Z,19.57
2019-02-21T11:35:14.374Z,19.27
2019-02-21T11:37:46.799Z,20.08
2019-02-21T11:40:15.486Z,20.50
2019-02-21T11:42:44.497Z,20.65
2019-02-21T11:45:20.491Z,19.15
2019-02-21T11:47:49.082Z,19.42
2019-02-21T11:50:20.662Z,18.90
2019-02-21T11:52:49.254Z,18.35
2019-02-21T11:55:27.003Z,17.73
2019-02-21T11:57:55.588Z,18.67
2019-02-21T12:00:28.790Z,17.40
2019-02-21T12:02:57.458Z,18.48
2019-02-21T12:05:31.521Z,16.57
2019-02-21T12:07:56.222Z,17.30
2019-02-21T12:10:24.817Z,18.20
2019-02-21T12:12:53.380Z,18.00
2019-02-21T12:15:21.982Z,18.17
2019-02-21T12:17:50.551Z,17.75
2019-02-21T12:20:20.075Z,17.07
2019-02-21T12:22:48.648Z,19.15
2019-02-21T12:25:20.321Z,18.23
2019-02-21T12:27:48.884Z,19.82
2019-02-21T12:30:18.824Z,19.42
2019-02-21T12:32:47.520Z,19.57
2019-02-21T12:35:16.174Z,17.62
2019-02-21T12:37:44.735Z,18.87
2019-02-21T12:40:16.031Z,18.57
2019-02-21T12:42:44.599Z,18.25
2019-02-21T12:45:15.607Z,17.65
2019-02-21T12:47:50.801Z,18.50
2019-02-21T12:50:14.675Z,18.65
2019-02-21T12:52:43.239Z,17.82
2019-02-21T12:55:12.267Z,17.67
2019-02-21T12:57:40.827Z,17.45
2019-02-21T13:00:17.780Z,20.37
2019-02-21T13:02:46.352Z,19.87
2019-02-21T13:05:15.009Z,18.25
2019-02-21T13:07:43.581Z,20.23
2019-02-21T13:10:19.787Z,19.05
2019-02-21T13:12:48.425Z,19.80
2019-02-21T13:15:16.936Z,18.10
2019-02-21T13:17:45.501Z,21.75
2019-02-21T13:20:15.222Z,18.95
2019-02-21T13:22:43.867Z,18.85
2019-02-21T13:25:14.387Z,19.32
2019-02-21T13:27:42.955Z,18.82
2019-02-21T13:30:13.979Z,17.45
2019-02-21T13:32:42.546Z,19.37
2019-02-21T13:35:11.483Z,20.43
2019-02-21T13:37:40.118Z,19.05
2019-02-21T13:40:13.978Z,17.45
2019-02-21T13:42:42.608Z,18.00
2019-02-21T13:45:13.435Z,19.62
2019-02-21T13:47:42.012Z,20.10
2019-02-21T13:50:15.343Z,18.92
2019-02-21T13:52:43.906Z,19.57
2019-02-21T13:55:12.642Z,19.45
2019-02-21T13:57:41.218Z,18.70
2019-02-21T14:00:18.160Z,17.10
2019-02-21T14:02:46.720Z,17.42
2019-02-21T14:05:15.307Z,16.75
2019-02-21T14:07:43.877Z,15.93
2019-02-21T14:10:13.707Z,15.70
2019-02-21T14:12:42.276Z,16.30
2019-02-21T14:15:14.004Z,15.48
2019-02-21T14:17:42.571Z,16.75
2019-02-21T14:20:11.223Z,15.68
2019-02-21T14:22:39.788Z,14.80
2019-02-21T14:25:11.015Z,14.43
2019-02-21T14:27:39.595Z,15.40
2019-02-21T14:30:18.815Z,15.00
2019-02-21T14:32:47.382Z,14.30
2019-02-21T14:35:16.316Z,15.32
2019-02-21T14:37:44.866Z,16.32
2019-02-21T14:40:17.532Z,14.40
2019-02-21T14:42:46.051Z,14.90
2019-02-21T14:45:20.052Z,15.38
2019-02-21T14:47:48.615Z,15.78
2019-02-21T14:50:17.275Z,15.30
2019-02-21T14:52:45.838Z,16.05
2019-02-21T14:55:15.371Z,15.28
2019-02-21T14:57:43.940Z,15.60
2019-02-21T15:00:23.206Z,13.93
2019-02-21T15:02:51.850Z,15.35
2019-02-21T15:05:20.831Z,15.90
2019-02-21T15:07:49.463Z,15.10
2019-02-21T15:10:18.052Z,16.87
2019-02-21T15:12:46.701Z,16.90
2019-02-21T15:15:17.995Z,17.60
2019-02-21T15:17:46.572Z,16.85
2019-02-21T15:20:16.603Z,16.90
2019-02-21T15:22:45.209Z,17.65
2019-02-21T15:25:14.023Z,16.00
2019-02-21T15:27:42.591Z,16.30
2019-02-21T15:30:14.125Z,15.70
2019-02-21T15:32:44.814Z,17.95
2019-02-21T15:35:13.089Z,15.55
2019-02-21T15:37:41.661Z,16.60
2019-02-21T15:40:10.588Z,17.35
2019-02-21T15:42:39.148Z,17.35
2019-02-21T15:45:22.407Z,18.23
2019-02-21T15:47:44.588Z,17.10
2019-02-21T15:50:14.319Z,18.05
2019-02-21T15:52:44.027Z,18.20
2019-02-21T15:55:14.958Z,17.20
2019-02-21T15:57:43.523Z,17.48
2019-02-21T16:00:19.646Z,17.27
2019-02-21T16:02:48.204Z,18.05
2019-02-21T16:05:16.796Z,16.70
2019-02-21T16:07:45.363Z,16.32
2019-02-21T16:10:22.776Z,17.52
2019-02-21T16:12:51.633Z,16.32
2019-02-21T16:15:20.341Z,16.73
2019-02-21T16:17:48.909Z,17.75
2019-02-21T16:20:19.711Z,17.60
2019-02-21T16:22:48.342Z,16.93
2019-02-21T16:25:31.277Z,17.67
2019-02-21T16:27:59.769Z,17.27
2019-02-21T16:30:28.370Z,20.10
2019-02-21T16:32:56.932Z,19.20
2019-02-21T16:35:27.307Z,18.45
2019-02-21T16:37:55.739Z,18.07
2019-02-21T16:40:24.324Z,18.50
2019-02-21T16:42:52.897Z,16.82
2019-02-21T16:45:22.620Z,17.00
2019-02-21T16:47:51.338Z,16.67
2019-02-21T16:50:29.443Z,19.07
2019-02-21T16:52:50.141Z,16.52
2019-02-21T16:55:20.938Z,16.45
2019-02-21T16:57:49.504Z,18.27
2019-02-21T17:00:21.902Z,16.82
2019-02-21T17:02:50.460Z,16.97
2019-02-21T17:05:19.053Z,17.55
2019-02-21T17:07:47.611Z,15.03
2019-02-21T17:10:17.185Z,17.55
2019-02-21T17:12:45.841Z,19.07
2019-02-21T17:15:15.982Z,17.15
2019-02-21T17:17:44.702Z,17.40
2019-02-21T17:20:24.018Z,16.87
2019-02-21T17:22:52.652Z,16.05
2019-02-21T17:25:21.157Z,15.58
2019-02-21T17:27:50.612Z,15.83
2019-02-21T17:30:19.715Z,15.25
2019-02-21T17:32:48.294Z,16.45
2019-02-21T17:35:16.927Z,17.55
2019-02-21T17:37:45.521Z,17.10
2019-02-21T17:40:17.172Z,17.90
2019-02-21T17:42:45.829Z,16.93
2019-02-21T17:45:14.466Z,17.32
2019-02-21T17:47:43.078Z,17.45
2019-02-21T17:50:13.882Z,19.55
2019-02-21T17:52:42.469Z,20.97
2019-02-21T17:55:11.576Z,18.82
2019-02-21T17:57:40.235Z,22.17
2019-02-21T18:00:11.875Z,22.00
2019-02-21T18:02:40.463Z,25.25
2019-02-21T18:05:10.368Z,26.48
2019-02-21T18:07:39.027Z,24.80
2019-02-21T18:10:11.241Z,27.27
2019-02-21T18:12:39.822Z,29.07
2019-02-21T18:15:10.630Z,29.60
2019-02-21T18:17:39.229Z,30.08
2019-02-21T18:20:10.640Z,33.38
2019-02-21T18:22:39.228Z,33.78
2019-02-21T18:25:13.460Z,33.85
2019-02-21T18:27:42.051Z,32.28
2019-02-21T18:30:13.836Z,38.78
2019-02-21T18:32:42.440Z,55.70
2019-02-21T18:35:11.751Z,113.28
2019-02-21T18:37:47.418Z,43.73
2019-02-21T18:40:17.167Z,31.70
2019-02-21T18:42:43.704Z,30.97
2019-02-21T18:45:12.403Z,28.55
2019-02-21T18:47:40.994Z,28.67
2019-02-21T18:50:12.203Z,29.65
2019-02-21T18:52:40.786Z,29.12
2019-02-21T18:55:09.899Z,31.85
2019-02-21T18:57:38.487Z,30.65
2019-02-21T19:00:09.878Z,31.80
2019-02-21T19:02:38.458Z,29.95
2019-02-21T19:05:08.071Z,29.02
2019-02-21T19:07:36.663Z,29.12
2019-02-21T19:10:10.871Z,28.80
2019-02-21T19:12:39.463Z,28.25
2019-02-21T19:15:10.430Z,32.85
2019-02-21T19:17:39.116Z,32.15
2019-02-21T19:20:12.593Z,35.20
2019-02-21T19:22:41.123Z,33.50
2019-02-21T19:25:11.036Z,35.23
2019-02-21T19:27:39.763Z,34.48
2019-02-21T19:30:14.566Z,42.78
2019-02-21T19:32:43.229Z,36.45
2019-02-21T19:35:11.800Z,33.33
2019-02-21T19:37:40.379Z,32.83
2019-02-21T19:40:10.283Z,32.53
2019-02-21T19:42:38.883Z,36.95
2019-02-21T19:45:08.891Z,33.10
2019-02-21T19:47:37.471Z,33.95
2019-02-21T19:50:09.876Z,34.73
2019-02-21T19:52:38.531Z,38.85
2019-02-21T19:55:09.239Z,38.75
2019-02-21T19:57:37.981Z,37.00
2019-02-21T20:00:16.379Z,38.98
2019-02-21T20:02:44.999Z,42.10
2019-02-21T20:05:14.703Z,41.60
2019-02-21T20:07:43.288Z,40.40
2019-02-21T20:10:11.859Z,41.35
2019-02-21T20:12:43.569Z,43.15
2019-02-21T20:15:12.747Z,46.68
2019-02-21T20:17:41.403Z,41.02
2019-02-21T20:20:21.223Z,41.65
2019-02-21T20:22:49.825Z,39.33
2019-02-21T20:25:18.392Z,40.20
2019-02-21T20:27:46.979Z,42.85
2019-02-21T20:30:17.655Z,41.63
2019-02-21T20:32:46.250Z,41.25
2019-02-21T20:35:15.291Z,40.92
2019-02-21T20:37:44.206Z,44.67
2019-02-21T20:40:12.913Z,46.28
2019-02-21T20:42:41.567Z,44.45
2019-02-21T20:45:15.064Z,44.67
2019-02-21T20:47:43.648Z,46.90
2019-02-21T20:50:15.218Z,46.88
2019-02-21T20:52:43.808Z,49.40
2019-02-21T20:55:12.710Z,49.13
2019-02-21T20:57:41.366Z,47.58
2019-02-21T21:00:15.359Z,50.63
2019-02-21T21:02:44.323Z,50.80
2019-02-21T21:05:12.968Z,53.10
2019-02-21T21:07:41.568Z,53.10
2019-02-21T21:10:14.848Z,52.20
2019-02-21T21:12:43.440Z,52.08
2019-02-21T21:15:14.220Z,51.20
2019-02-21T21:17:42.874Z,53.52
2019-02-21T21:20:17.098Z,54.75
2019-02-21T21:22:45.740Z,57.50
2019-02-21T21:25:20.292Z,54.53
2019-02-21T21:27:48.884Z,55.40
2019-02-21T21:30:18.234Z,53.95
2019-02-21T21:32:46.819Z,56.90
2019-02-21T21:35:15.394Z,58.20
2019-02-21T21:37:43.974Z,57.88
2019-02-21T21:40:15.003Z,56.05
2019-02-21T21:42:43.736Z,58.20
2019-02-21T21:45:18.662Z,57.15
2019-02-21T21:47:47.323Z,60.08
2019-02-21T21:50:17.735Z,58.75
2019-02-21T21:52:46.323Z,55.43
2019-02-21T21:55:15.134Z,60.08
2019-02-21T21:57:44.003Z,60.63
2019-02-21T22:00:23.463Z,55.83
2019-02-21T22:02:52.058Z,57.27
2019-02-21T22:05:20.691Z,60.55
2019-02-21T22:07:49.689Z,58.95
2019-02-21T22:10:18.481Z,65.17
2019-02-21T22:12:47.065Z,61.88
2019-02-21T22:15:18.243Z,65.80
2019-02-21T22:17:46.834Z,67.08
2019-02-21T22:20:15.408Z,68.17
2019-02-21T22:22:43.975Z,67.42
2019-02-21T22:25:13.916Z,69.05
2019-02-21T22:27:42.620Z,57.78
2019-02-21T22:30:21.027Z,72.45
2019-02-21T22:32:49.635Z,68.10
2019-02-21T22:35:18.205Z,70.22
2019-02-21T22:37:46.774Z,61.48
2019-02-21T22:40:17.480Z,67.55
2019-02-21T22:42:46.051Z,71.25
2019-02-21T22:45:14.643Z,56.42
2019-02-21T22:47:43.215Z,73.42
2019-02-21T22:50:14.620Z,71.42
2019-02-21T22:52:43.259Z,77.15
2019-02-21T22:55:11.919Z,76.02
2019-02-21T22:57:40.488Z,81.97
2019-02-21T23:00:31.691Z,81.55
2019-02-21T23:03:01.479Z,62.33
2019-02-21T23:05:52.735Z,89.58
2019-02-21T23:08:42.370Z,80.92
2019-02-21T23:11:11.211Z,83.75
2019-02-21T23:13:39.939Z,72.42
2019-02-21T23:16:08.584Z,84.92
2019-02-21T23:18:37.379Z,88.20
2019-02-21T23:21:05.951Z,78.52
2019-02-21T23:23:34.543Z,83.07
2019-02-21T23:26:03.111Z,62.15
2019-02-21T23:28:31.702Z,84.95
2019-02-21T23:31:00.277Z,87.75
2019-02-21T23:33:29.733Z,60.65
2019-02-21T23:35:58.307Z,64.58
2019-02-21T23:38:27.177Z,75.57
2019-02-21T23:40:55.739Z,77.87
2019-02-21T23:43:24.327Z,81.80
2019-02-21T23:45:52.909Z,87.53
2019-02-21T23:48:21.470Z,88.90
2019-02-21T23:50:50.059Z,90.05
2019-02-21T23:53:18.641Z,88.65
2019-02-21T23:55:47.218Z,87.65
2019-02-21T23:58:15.854Z,87.15
